sensor_id;sensor_type;location;lat;lon;timestamp;P1;durP1;ratioP1;P2;durP2;ratioP2
74100;SDS011;62462;52.530;21.682;2023-06-26T00:01:42;15.60;;;7.90;;
74100;SDS011;62462;52.530;21.682;2023-06-26T00:04:08;11.98;;;7.82;;
74100;SDS011;62462;52.530;21.682;2023-06-26T00:06:39;15.80;;;9.50;;
74100;SDS011;62462;52.530;21.682;2023-06-26T00:09:05;18.08;;;9.95;;
74100;SDS011;62462;52.530;21.682;2023-06-26T00:11:31;17.73;;;9.73;;
74100;SDS011;62462;52.530;21.682;2023-06-26T00:13:58;15.23;;;8.80;;
74100;SDS011;62462;52.530;21.682;2023-06-26T00:16:25;13.18;;;8.73;;
74100;SDS011;62462;52.530;21.682;2023-06-26T00:18:52;15.50;;;9.20;;
74100;SDS011;62462;52.530;21.682;2023-06-26T00:21:18;13.52;;;8.45;;
74100;SDS011;62462;52.530;21.682;2023-06-26T00:23:44;14.85;;;8.73;;
74100;SDS011;62462;52.530;21.682;2023-06-26T00:26:10;13.88;;;8.85;;
74100;SDS011;62462;52.530;21.682;2023-06-26T00:28:37;12.80;;;8.05;;
74100;SDS011;62462;52.530;21.682;2023-06-26T00:31:03;13.57;;;8.85;;
74100;SDS011;62462;52.530;21.682;2023-06-26T00:33:29;15.95;;;8.95;;
74100;SDS011;62462;52.530;21.682;2023-06-26T00:35:56;12.10;;;8.18;;
74100;SDS011;62462;52.530;21.682;2023-06-26T00:38:21;16.05;;;9.00;;
74100;SDS011;62462;52.530;21.682;2023-06-26T00:40:47;15.98;;;8.45;;
74100;SDS011;62462;52.530;21.682;2023-06-26T00:43:13;12.52;;;8.55;;
74100;SDS011;62462;52.530;21.682;2023-06-26T00:45:38;11.88;;;8.68;;
74100;SDS011;62462;52.530;21.682;2023-06-26T00:48:04;12.60;;;8.50;;
74100;SDS011;62462;52.530;21.682;2023-06-26T00:50:31;14.15;;;8.98;;
74100;SDS011;62462;52.530;21.682;2023-06-26T00:52:57;13.88;;;8.90;;
74100;SDS011;62462;52.530;21.682;2023-06-26T00:55:26;13.25;;;8.90;;
74100;SDS011;62462;52.530;21.682;2023-06-26T00:57:52;14.27;;;8.75;;
74100;SDS011;62462;52.530;21.682;2023-06-26T01:00:19;13.95;;;8.02;;
74100;SDS011;62462;52.530;21.682;2023-06-26T01:02:45;12.63;;;8.25;;
74100;SDS011;62462;52.530;21.682;2023-06-26T01:05:11;12.35;;;8.43;;
74100;SDS011;62462;52.530;21.682;2023-06-26T01:07:47;12.82;;;8.15;;
74100;SDS011;62462;52.530;21.682;2023-06-26T01:10:13;10.20;;;7.47;;
74100;SDS011;62462;52.530;21.682;2023-06-26T01:12:39;10.70;;;7.93;;
74100;SDS011;62462;52.530;21.682;2023-06-26T01:15:05;11.25;;;8.00;;
74100;SDS011;62462;52.530;21.682;2023-06-26T01:17:32;11.27;;;7.80;;
74100;SDS011;62462;52.530;21.682;2023-06-26T01:20:05;13.80;;;7.55;;
74100;SDS011;62462;52.530;21.682;2023-06-26T01:25:24;10.30;;;7.40;;
74100;SDS011;62462;52.530;21.682;2023-06-26T01:28:03;12.43;;;8.15;;
74100;SDS011;62462;52.530;21.682;2023-06-26T01:30:31;10.05;;;7.68;;
74100;SDS011;62462;52.530;21.682;2023-06-26T01:32:59;12.43;;;7.45;;
74100;SDS011;62462;52.530;21.682;2023-06-26T01:35:26;9.90;;;7.35;;
74100;SDS011;62462;52.530;21.682;2023-06-26T01:37:52;13.30;;;8.02;;
74100;SDS011;62462;52.530;21.682;2023-06-26T01:40:18;11.50;;;8.02;;
74100;SDS011;62462;52.530;21.682;2023-06-26T01:42:44;11.40;;;7.28;;
74100;SDS011;62462;52.530;21.682;2023-06-26T01:45:13;11.07;;;7.82;;
74100;SDS011;62462;52.530;21.682;2023-06-26T01:47:48;9.02;;;6.88;;
74100;SDS011;62462;52.530;21.682;2023-06-26T01:50:21;9.57;;;7.25;;
74100;SDS011;62462;52.530;21.682;2023-06-26T01:53:07;11.60;;;7.85;;
74100;SDS011;62462;52.530;21.682;2023-06-26T01:55:44;10.77;;;6.82;;
74100;SDS011;62462;52.530;21.682;2023-06-26T01:58:14;10.60;;;7.38;;
74100;SDS011;62462;52.530;21.682;2023-06-26T02:00:42;10.07;;;7.05;;
74100;SDS011;62462;52.530;21.682;2023-06-26T02:03:08;10.43;;;7.15;;
74100;SDS011;62462;52.530;21.682;2023-06-26T02:05:34;12.60;;;7.68;;
74100;SDS011;62462;52.530;21.682;2023-06-26T02:08:00;11.40;;;7.32;;
74100;SDS011;62462;52.530;21.682;2023-06-26T02:10:28;11.38;;;7.45;;
74100;SDS011;62462;52.530;21.682;2023-06-26T02:12:54;9.77;;;6.70;;
74100;SDS011;62462;52.530;21.682;2023-06-26T02:15:20;10.20;;;7.18;;
74100;SDS011;62462;52.530;21.682;2023-06-26T02:17:47;9.57;;;7.40;;
74100;SDS011;62462;52.530;21.682;2023-06-26T02:20:14;9.43;;;7.28;;
74100;SDS011;62462;52.530;21.682;2023-06-26T02:22:40;10.90;;;7.18;;
74100;SDS011;62462;52.530;21.682;2023-06-26T02:25:06;9.65;;;7.15;;
74100;SDS011;62462;52.530;21.682;2023-06-26T02:27:32;8.80;;;6.95;;
74100;SDS011;62462;52.530;21.682;2023-06-26T02:29:58;9.95;;;7.40;;
74100;SDS011;62462;52.530;21.682;2023-06-26T02:32:24;9.38;;;6.97;;
74100;SDS011;62462;52.530;21.682;2023-06-26T02:34:49;11.63;;;7.20;;
74100;SDS011;62462;52.530;21.682;2023-06-26T02:37:19;9.05;;;7.10;;
74100;SDS011;62462;52.530;21.682;2023-06-26T02:39:45;11.00;;;6.95;;
74100;SDS011;62462;52.530;21.682;2023-06-26T02:42:11;10.02;;;7.10;;
74100;SDS011;62462;52.530;21.682;2023-06-26T02:44:37;10.02;;;7.32;;
74100;SDS011;62462;52.530;21.682;2023-06-26T02:47:03;10.32;;;6.93;;
74100;SDS011;62462;52.530;21.682;2023-06-26T02:49:29;18.45;;;6.90;;
74100;SDS011;62462;52.530;21.682;2023-06-26T02:51:55;17.30;;;6.80;;
74100;SDS011;62462;52.530;21.682;2023-06-26T02:54:20;12.13;;;7.25;;
74100;SDS011;62462;52.530;21.682;2023-06-26T02:56:46;13.70;;;6.70;;
74100;SDS011;62462;52.530;21.682;2023-06-26T02:59:12;10.73;;;7.55;;
74100;SDS011;62462;52.530;21.682;2023-06-26T03:01:37;13.07;;;8.30;;
74100;SDS011;62462;52.530;21.682;2023-06-26T03:04:03;16.35;;;9.60;;
74100;SDS011;62462;52.530;21.682;2023-06-26T03:06:29;26.05;;;13.20;;
74100;SDS011;62462;52.530;21.682;2023-06-26T03:08:55;18.65;;;10.45;;
74100;SDS011;62462;52.530;21.682;2023-06-26T03:11:21;15.05;;;9.27;;
74100;SDS011;62462;52.530;21.682;2023-06-26T03:13:48;12.85;;;7.70;;
74100;SDS011;62462;52.530;21.682;2023-06-26T03:16:13;10.45;;;7.55;;
74100;SDS011;62462;52.530;21.682;2023-06-26T03:18:39;9.50;;;7.53;;
74100;SDS011;62462;52.530;21.682;2023-06-26T03:21:05;10.88;;;8.07;;
74100;SDS011;62462;52.530;21.682;2023-06-26T03:23:30;11.00;;;8.10;;
74100;SDS011;62462;52.530;21.682;2023-06-26T03:25:56;13.30;;;7.60;;
74100;SDS011;62462;52.530;21.682;2023-06-26T03:28:22;10.40;;;7.15;;
74100;SDS011;62462;52.530;21.682;2023-06-26T03:30:47;10.65;;;7.70;;
74100;SDS011;62462;52.530;21.682;2023-06-26T03:33:13;11.13;;;7.43;;
74100;SDS011;62462;52.530;21.682;2023-06-26T03:35:39;10.95;;;7.55;;
74100;SDS011;62462;52.530;21.682;2023-06-26T03:38:05;9.98;;;7.07;;
74100;SDS011;62462;52.530;21.682;2023-06-26T03:40:30;13.13;;;7.32;;
74100;SDS011;62462;52.530;21.682;2023-06-26T03:42:56;9.15;;;6.60;;
74100;SDS011;62462;52.530;21.682;2023-06-26T03:45:22;11.57;;;7.15;;
74100;SDS011;62462;52.530;21.682;2023-06-26T03:47:48;11.63;;;6.68;;
74100;SDS011;62462;52.530;21.682;2023-06-26T03:50:15;8.90;;;7.00;;
74100;SDS011;62462;52.530;21.682;2023-06-26T03:52:41;9.30;;;6.72;;
74100;SDS011;62462;52.530;21.682;2023-06-26T03:55:07;9.63;;;7.07;;
74100;SDS011;62462;52.530;21.682;2023-06-26T03:57:33;9.75;;;7.30;;
74100;SDS011;62462;52.530;21.682;2023-06-26T03:59:59;11.18;;;6.80;;
74100;SDS011;62462;52.530;21.682;2023-06-26T04:02:25;9.90;;;7.47;;
74100;SDS011;62462;52.530;21.682;2023-06-26T04:04:50;8.48;;;6.93;;
74100;SDS011;62462;52.530;21.682;2023-06-26T04:07:17;11.27;;;7.38;;
74100;SDS011;62462;52.530;21.682;2023-06-26T04:09:44;11.95;;;7.85;;
74100;SDS011;62462;52.530;21.682;2023-06-26T04:12:10;11.45;;;8.27;;
74100;SDS011;62462;52.530;21.682;2023-06-26T04:14:35;16.15;;;8.13;;
74100;SDS011;62462;52.530;21.682;2023-06-26T04:17:01;11.52;;;8.20;;
74100;SDS011;62462;52.530;21.682;2023-06-26T04:19:28;10.68;;;7.45;;
74100;SDS011;62462;52.530;21.682;2023-06-26T04:21:55;9.90;;;7.95;;
74100;SDS011;62462;52.530;21.682;2023-06-26T04:24:21;9.43;;;7.70;;
74100;SDS011;62462;52.530;21.682;2023-06-26T04:26:47;9.65;;;7.65;;
74100;SDS011;62462;52.530;21.682;2023-06-26T04:29:12;11.57;;;8.50;;
74100;SDS011;62462;52.530;21.682;2023-06-26T04:31:38;12.90;;;8.40;;
74100;SDS011;62462;52.530;21.682;2023-06-26T04:34:05;10.07;;;8.00;;
74100;SDS011;62462;52.530;21.682;2023-06-26T04:36:31;11.13;;;7.93;;
74100;SDS011;62462;52.530;21.682;2023-06-26T04:38:58;8.93;;;7.57;;
74100;SDS011;62462;52.530;21.682;2023-06-26T04:41:24;11.25;;;7.75;;
74100;SDS011;62462;52.530;21.682;2023-06-26T04:43:50;11.73;;;7.28;;
74100;SDS011;62462;52.530;21.682;2023-06-26T04:46:16;13.82;;;7.32;;
74100;SDS011;62462;52.530;21.682;2023-06-26T04:48:42;12.18;;;6.90;;
74100;SDS011;62462;52.530;21.682;2023-06-26T04:51:10;10.82;;;6.90;;
74100;SDS011;62462;52.530;21.682;2023-06-26T04:53:36;9.15;;;6.45;;
74100;SDS011;62462;52.530;21.682;2023-06-26T04:56:02;8.60;;;6.10;;
74100;SDS011;62462;52.530;21.682;2023-06-26T04:58:28;9.57;;;6.65;;
74100;SDS011;62462;52.530;21.682;2023-06-26T05:00:53;7.88;;;6.38;;
74100;SDS011;62462;52.530;21.682;2023-06-26T05:03:19;9.40;;;6.35;;
74100;SDS011;62462;52.530;21.682;2023-06-26T05:05:45;11.45;;;7.47;;
74100;SDS011;62462;52.530;21.682;2023-06-26T05:10:44;7.93;;;6.30;;
74100;SDS011;62462;52.530;21.682;2023-06-26T05:13:10;10.77;;;7.18;;
74100;SDS011;62462;52.530;21.682;2023-06-26T05:15:36;9.23;;;6.53;;
74100;SDS011;62462;52.530;21.682;2023-06-26T05:18:02;8.15;;;6.25;;
74100;SDS011;62462;52.530;21.682;2023-06-26T05:20:28;7.65;;;5.88;;
74100;SDS011;62462;52.530;21.682;2023-06-26T05:22:54;15.48;;;7.90;;
74100;SDS011;62462;52.530;21.682;2023-06-26T05:25:20;8.40;;;7.07;;
74100;SDS011;62462;52.530;21.682;2023-06-26T05:27:47;9.70;;;7.43;;
74100;SDS011;62462;52.530;21.682;2023-06-26T05:30:13;8.98;;;6.97;;
74100;SDS011;62462;52.530;21.682;2023-06-26T05:32:39;8.30;;;6.28;;
74100;SDS011;62462;52.530;21.682;2023-06-26T05:35:06;8.93;;;6.25;;
74100;SDS011;62462;52.530;21.682;2023-06-26T05:37:32;9.85;;;6.85;;
74100;SDS011;62462;52.530;21.682;2023-06-26T05:39:59;8.38;;;7.00;;
74100;SDS011;62462;52.530;21.682;2023-06-26T05:42:26;8.00;;;6.80;;
74100;SDS011;62462;52.530;21.682;2023-06-26T05:44:56;7.72;;;6.15;;
74100;SDS011;62462;52.530;21.682;2023-06-26T05:47:22;9.38;;;7.43;;
74100;SDS011;62462;52.530;21.682;2023-06-26T05:49:48;8.27;;;7.03;;
74100;SDS011;62462;52.530;21.682;2023-06-26T05:52:14;9.25;;;6.68;;
74100;SDS011;62462;52.530;21.682;2023-06-26T05:54:40;9.60;;;7.68;;
74100;SDS011;62462;52.530;21.682;2023-06-26T05:57:06;10.20;;;7.10;;
74100;SDS011;62462;52.530;21.682;2023-06-26T05:59:32;9.75;;;7.13;;
74100;SDS011;62462;52.530;21.682;2023-06-26T06:02:00;9.15;;;7.85;;
74100;SDS011;62462;52.530;21.682;2023-06-26T06:04:26;11.68;;;7.30;;
74100;SDS011;62462;52.530;21.682;2023-06-26T06:06:52;11.70;;;7.88;;
74100;SDS011;62462;52.530;21.682;2023-06-26T06:09:19;8.75;;;7.43;;
74100;SDS011;62462;52.530;21.682;2023-06-26T06:11:44;10.95;;;7.32;;
74100;SDS011;62462;52.530;21.682;2023-06-26T06:14:10;10.90;;;7.40;;
74100;SDS011;62462;52.530;21.682;2023-06-26T06:16:36;7.88;;;6.72;;
74100;SDS011;62462;52.530;21.682;2023-06-26T06:19:02;9.32;;;7.03;;
74100;SDS011;62462;52.530;21.682;2023-06-26T06:21:29;10.52;;;6.65;;
74100;SDS011;62462;52.530;21.682;2023-06-26T06:23:55;10.60;;;7.10;;
74100;SDS011;62462;52.530;21.682;2023-06-26T06:26:20;7.93;;;6.80;;
74100;SDS011;62462;52.530;21.682;2023-06-26T06:28:46;8.68;;;6.47;;
74100;SDS011;62462;52.530;21.682;2023-06-26T06:31:12;9.07;;;7.63;;
74100;SDS011;62462;52.530;21.682;2023-06-26T06:33:37;9.68;;;7.85;;
74100;SDS011;62462;52.530;21.682;2023-06-26T06:36:04;8.50;;;7.10;;
74100;SDS011;62462;52.530;21.682;2023-06-26T06:38:30;9.90;;;7.50;;
74100;SDS011;62462;52.530;21.682;2023-06-26T06:40:56;9.80;;;7.05;;
74100;SDS011;62462;52.530;21.682;2023-06-26T06:43:22;9.27;;;7.10;;
74100;SDS011;62462;52.530;21.682;2023-06-26T06:45:48;16.98;;;7.30;;
74100;SDS011;62462;52.530;21.682;2023-06-26T06:48:13;9.88;;;6.68;;
74100;SDS011;62462;52.530;21.682;2023-06-26T06:50:39;9.00;;;6.28;;
74100;SDS011;62462;52.530;21.682;2023-06-26T06:53:05;9.18;;;6.22;;
74100;SDS011;62462;52.530;21.682;2023-06-26T06:55:32;7.88;;;5.78;;
74100;SDS011;62462;52.530;21.682;2023-06-26T06:57:58;8.13;;;5.38;;
74100;SDS011;62462;52.530;21.682;2023-06-26T07:00:23;7.15;;;4.82;;
74100;SDS011;62462;52.530;21.682;2023-06-26T07:02:49;5.50;;;4.85;;
74100;SDS011;62462;52.530;21.682;2023-06-26T07:05:16;7.75;;;4.85;;
74100;SDS011;62462;52.530;21.682;2023-06-26T07:07:41;6.32;;;4.32;;
74100;SDS011;62462;52.530;21.682;2023-06-26T07:10:08;8.57;;;4.75;;
74100;SDS011;62462;52.530;21.682;2023-06-26T07:12:36;5.18;;;4.68;;
74100;SDS011;62462;52.530;21.682;2023-06-26T07:15:02;5.68;;;4.43;;
74100;SDS011;62462;52.530;21.682;2023-06-26T07:17:29;4.60;;;4.20;;
74100;SDS011;62462;52.530;21.682;2023-06-26T07:19:55;5.10;;;4.30;;
74100;SDS011;62462;52.530;21.682;2023-06-26T07:22:21;5.38;;;4.30;;
74100;SDS011;62462;52.530;21.682;2023-06-26T07:24:47;4.75;;;3.50;;
74100;SDS011;62462;52.530;21.682;2023-06-26T07:27:14;4.63;;;4.10;;
74100;SDS011;62462;52.530;21.682;2023-06-26T07:29:44;6.22;;;4.30;;
74100;SDS011;62462;52.530;21.682;2023-06-26T07:32:10;6.93;;;4.25;;
74100;SDS011;62462;52.530;21.682;2023-06-26T07:34:35;5.35;;;3.38;;
74100;SDS011;62462;52.530;21.682;2023-06-26T07:37:01;3.60;;;3.22;;
74100;SDS011;62462;52.530;21.682;2023-06-26T07:39:27;5.63;;;3.65;;
74100;SDS011;62462;52.530;21.682;2023-06-26T07:41:54;6.55;;;4.07;;
74100;SDS011;62462;52.530;21.682;2023-06-26T07:44:20;4.38;;;3.75;;
74100;SDS011;62462;52.530;21.682;2023-06-26T07:46:45;5.55;;;4.20;;
74100;SDS011;62462;52.530;21.682;2023-06-26T07:49:11;6.45;;;3.70;;
74100;SDS011;62462;52.530;21.682;2023-06-26T07:51:37;4.63;;;3.60;;
74100;SDS011;62462;52.530;21.682;2023-06-26T07:54:03;5.45;;;3.80;;
74100;SDS011;62462;52.530;21.682;2023-06-26T07:56:29;3.63;;;3.20;;
74100;SDS011;62462;52.530;21.682;2023-06-26T07:58:54;3.20;;;2.90;;
74100;SDS011;62462;52.530;21.682;2023-06-26T08:01:22;4.43;;;3.58;;
74100;SDS011;62462;52.530;21.682;2023-06-26T08:03:49;3.30;;;2.70;;
74100;SDS011;62462;52.530;21.682;2023-06-26T08:06:15;3.70;;;2.90;;
74100;SDS011;62462;52.530;21.682;2023-06-26T08:08:40;3.42;;;2.90;;
74100;SDS011;62462;52.530;21.682;2023-06-26T08:11:06;5.20;;;3.22;;
74100;SDS011;62462;52.530;21.682;2023-06-26T08:13:32;3.65;;;3.17;;
74100;SDS011;62462;52.530;21.682;2023-06-26T08:15:57;4.00;;;2.67;;
74100;SDS011;62462;52.530;21.682;2023-06-26T08:18:23;4.07;;;3.17;;
74100;SDS011;62462;52.530;21.682;2023-06-26T08:20:49;6.82;;;2.90;;
74100;SDS011;62462;52.530;21.682;2023-06-26T08:23:14;3.55;;;3.08;;
74100;SDS011;62462;52.530;21.682;2023-06-26T08:25:40;5.32;;;2.92;;
74100;SDS011;62462;52.530;21.682;2023-06-26T08:28:06;3.35;;;3.03;;
74100;SDS011;62462;52.530;21.682;2023-06-26T08:30:32;3.33;;;3.03;;
74100;SDS011;62462;52.530;21.682;2023-06-26T08:32:57;3.97;;;2.65;;
74100;SDS011;62462;52.530;21.682;2023-06-26T08:35:23;2.60;;;2.40;;
74100;SDS011;62462;52.530;21.682;2023-06-26T08:37:49;4.68;;;2.92;;
74100;SDS011;62462;52.530;21.682;2023-06-26T08:40:17;4.45;;;3.40;;
74100;SDS011;62462;52.530;21.682;2023-06-26T08:42:46;6.25;;;3.08;;
74100;SDS011;62462;52.530;21.682;2023-06-26T08:45:12;6.00;;;3.25;;
74100;SDS011;62462;52.530;21.682;2023-06-26T08:47:38;3.65;;;2.80;;
74100;SDS011;62462;52.530;21.682;2023-06-26T08:50:08;3.63;;;2.67;;
74100;SDS011;62462;52.530;21.682;2023-06-26T08:52:46;3.80;;;3.10;;
74100;SDS011;62462;52.530;21.682;2023-06-26T08:55:17;3.50;;;2.92;;
74100;SDS011;62462;52.530;21.682;2023-06-26T08:57:46;3.13;;;2.67;;
74100;SDS011;62462;52.530;21.682;2023-06-26T09:00:13;3.40;;;2.70;;
74100;SDS011;62462;52.530;21.682;2023-06-26T09:02:40;4.47;;;2.90;;
74100;SDS011;62462;52.530;21.682;2023-06-26T09:05:06;3.58;;;2.67;;
74100;SDS011;62462;52.530;21.682;2023-06-26T09:07:32;3.63;;;2.70;;
74100;SDS011;62462;52.530;21.682;2023-06-26T09:09:58;2.85;;;2.53;;
74100;SDS011;62462;52.530;21.682;2023-06-26T09:12:23;4.22;;;2.25;;
74100;SDS011;62462;52.530;21.682;2023-06-26T09:14:53;4.05;;;2.85;;
74100;SDS011;62462;52.530;21.682;2023-06-26T09:17:24;3.88;;;2.65;;
74100;SDS011;62462;52.530;21.682;2023-06-26T09:19:51;5.15;;;2.50;;
74100;SDS011;62462;52.530;21.682;2023-06-26T09:22:17;3.40;;;3.10;;
74100;SDS011;62462;52.530;21.682;2023-06-26T09:24:43;3.72;;;2.63;;
74100;SDS011;62462;52.530;21.682;2023-06-26T09:27:10;4.32;;;2.30;;
74100;SDS011;62462;52.530;21.682;2023-06-26T09:29:36;5.95;;;3.22;;
74100;SDS011;62462;52.530;21.682;2023-06-26T09:32:02;3.20;;;2.80;;
74100;SDS011;62462;52.530;21.682;2023-06-26T09:34:31;4.95;;;3.00;;
74100;SDS011;62462;52.530;21.682;2023-06-26T09:36:58;3.38;;;2.80;;
74100;SDS011;62462;52.530;21.682;2023-06-26T09:39:28;4.13;;;2.90;;
74100;SDS011;62462;52.530;21.682;2023-06-26T09:41:56;4.25;;;2.47;;
74100;SDS011;62462;52.530;21.682;2023-06-26T09:44:22;3.75;;;2.97;;
74100;SDS011;62462;52.530;21.682;2023-06-26T09:46:48;3.28;;;2.40;;
74100;SDS011;62462;52.530;21.682;2023-06-26T09:49:14;2.72;;;2.40;;
74100;SDS011;62462;52.530;21.682;2023-06-26T09:51:41;2.58;;;2.22;;
74100;SDS011;62462;52.530;21.682;2023-06-26T09:54:07;5.05;;;2.63;;
74100;SDS011;62462;52.530;21.682;2023-06-26T09:56:34;3.80;;;2.78;;
74100;SDS011;62462;52.530;21.682;2023-06-26T09:59:01;3.03;;;2.50;;
74100;SDS011;62462;52.530;21.682;2023-06-26T10:01:29;3.00;;;2.70;;
74100;SDS011;62462;52.530;21.682;2023-06-26T10:03:56;4.38;;;2.42;;
74100;SDS011;62462;52.530;21.682;2023-06-26T10:06:24;3.70;;;2.70;;
74100;SDS011;62462;52.530;21.682;2023-06-26T10:08:58;4.57;;;2.25;;
74100;SDS011;62462;52.530;21.682;2023-06-26T10:11:27;2.67;;;2.10;;
74100;SDS011;62462;52.530;21.682;2023-06-26T10:14:06;4.25;;;2.85;;
74100;SDS011;62462;52.530;21.682;2023-06-26T10:16:34;3.95;;;2.35;;
74100;SDS011;62462;52.530;21.682;2023-06-26T10:19:04;2.80;;;2.33;;
74100;SDS011;62462;52.530;21.682;2023-06-26T10:21:32;2.95;;;2.55;;
74100;SDS011;62462;52.530;21.682;2023-06-26T10:23:59;3.83;;;2.25;;
74100;SDS011;62462;52.530;21.682;2023-06-26T10:26:28;2.65;;;2.30;;
74100;SDS011;62462;52.530;21.682;2023-06-26T10:28:54;3.78;;;2.38;;
74100;SDS011;62462;52.530;21.682;2023-06-26T10:31:23;3.85;;;2.20;;
74100;SDS011;62462;52.530;21.682;2023-06-26T10:33:51;2.40;;;2.13;;
74100;SDS011;62462;52.530;21.682;2023-06-26T10:36:19;3.15;;;2.30;;
74100;SDS011;62462;52.530;21.682;2023-06-26T10:41:22;2.45;;;2.17;;
74100;SDS011;62462;52.530;21.682;2023-06-26T10:43:49;4.28;;;2.05;;
74100;SDS011;62462;52.530;21.682;2023-06-26T10:46:17;2.38;;;2.15;;
74100;SDS011;62462;52.530;21.682;2023-06-26T10:48:56;2.40;;;2.20;;
74100;SDS011;62462;52.530;21.682;2023-06-26T10:51:24;2.50;;;2.30;;
74100;SDS011;62462;52.530;21.682;2023-06-26T10:53:57;2.55;;;2.30;;
74100;SDS011;62462;52.530;21.682;2023-06-26T10:56:42;2.58;;;2.22;;
74100;SDS011;62462;52.530;21.682;2023-06-26T11:01:42;2.70;;;2.10;;
74100;SDS011;62462;52.530;21.682;2023-06-26T11:04:08;3.05;;;2.00;;
74100;SDS011;62462;52.530;21.682;2023-06-26T11:06:35;3.40;;;1.88;;
74100;SDS011;62462;52.530;21.682;2023-06-26T11:14:23;3.53;;;1.63;;
74100;SDS011;62462;52.530;21.682;2023-06-26T11:16:50;3.25;;;2.20;;
74100;SDS011;62462;52.530;21.682;2023-06-26T11:19:17;2.58;;;1.90;;
74100;SDS011;62462;52.530;21.682;2023-06-26T11:21:43;2.83;;;2.22;;
74100;SDS011;62462;52.530;21.682;2023-06-26T11:24:12;4.20;;;2.30;;
74100;SDS011;62462;52.530;21.682;2023-06-26T11:26:41;2.60;;;1.92;;
74100;SDS011;62462;52.530;21.682;2023-06-26T11:29:09;3.03;;;2.10;;
74100;SDS011;62462;52.530;21.682;2023-06-26T11:31:39;2.72;;;2.40;;
74100;SDS011;62462;52.530;21.682;2023-06-26T11:34:07;5.57;;;2.20;;
74100;SDS011;62462;52.530;21.682;2023-06-26T11:36:38;5.82;;;2.20;;
74100;SDS011;62462;52.530;21.682;2023-06-26T11:39:06;2.53;;;2.05;;
74100;SDS011;62462;52.530;21.682;2023-06-26T11:41:36;3.40;;;2.35;;
74100;SDS011;62462;52.530;21.682;2023-06-26T11:44:05;5.38;;;2.40;;
74100;SDS011;62462;52.530;21.682;2023-06-26T11:46:35;4.53;;;2.20;;
74100;SDS011;62462;52.530;21.682;2023-06-26T11:49:07;3.92;;;2.22;;
74100;SDS011;62462;52.530;21.682;2023-06-26T11:51:33;2.83;;;2.30;;
74100;SDS011;62462;52.530;21.682;2023-06-26T11:54:01;2.50;;;2.03;;
74100;SDS011;62462;52.530;21.682;2023-06-26T11:56:30;3.05;;;2.30;;
74100;SDS011;62462;52.530;21.682;2023-06-26T12:01:24;2.55;;;1.88;;
74100;SDS011;62462;52.530;21.682;2023-06-26T12:03:51;3.67;;;2.17;;
74100;SDS011;62462;52.530;21.682;2023-06-26T12:06:18;4.13;;;1.75;;
74100;SDS011;62462;52.530;21.682;2023-06-26T12:08:44;3.95;;;2.10;;
74100;SDS011;62462;52.530;21.682;2023-06-26T12:11:12;4.90;;;1.98;;
74100;SDS011;62462;52.530;21.682;2023-06-26T12:13:38;2.22;;;1.88;;
74100;SDS011;62462;52.530;21.682;2023-06-26T12:16:04;3.13;;;2.00;;
74100;SDS011;62462;52.530;21.682;2023-06-26T12:18:36;3.00;;;2.20;;
74100;SDS011;62462;52.530;21.682;2023-06-26T12:21:02;2.13;;;1.92;;
74100;SDS011;62462;52.530;21.682;2023-06-26T12:23:48;2.65;;;2.20;;
74100;SDS011;62462;52.530;21.682;2023-06-26T12:26:17;2.78;;;2.20;;
74100;SDS011;62462;52.530;21.682;2023-06-26T12:28:46;3.40;;;2.57;;
74100;SDS011;62462;52.530;21.682;2023-06-26T12:31:13;3.33;;;2.20;;
74100;SDS011;62462;52.530;21.682;2023-06-26T12:33:45;4.45;;;2.20;;
74100;SDS011;62462;52.530;21.682;2023-06-26T12:36:14;2.65;;;2.35;;
74100;SDS011;62462;52.530;21.682;2023-06-26T12:38:44;11.00;;;8.23;;
74100;SDS011;62462;52.530;21.682;2023-06-26T12:41:14;10.15;;;6.53;;
74100;SDS011;62462;52.530;21.682;2023-06-26T12:43:41;6.05;;;4.85;;
74100;SDS011;62462;52.530;21.682;2023-06-26T12:46:07;8.20;;;3.40;;
74100;SDS011;62462;52.530;21.682;2023-06-26T12:48:39;5.85;;;2.60;;
74100;SDS011;62462;52.530;21.682;2023-06-26T12:51:11;3.42;;;2.10;;
74100;SDS011;62462;52.530;21.682;2023-06-26T12:53:38;9.25;;;2.10;;
74100;SDS011;62462;52.530;21.682;2023-06-26T12:56:07;9.82;;;2.75;;
74100;SDS011;62462;52.530;21.682;2023-06-26T12:58:34;2.63;;;1.67;;
74100;SDS011;62462;52.530;21.682;2023-06-26T13:01:04;1.83;;;1.70;;
74100;SDS011;62462;52.530;21.682;2023-06-26T13:03:39;2.50;;;2.30;;
74100;SDS011;62462;52.530;21.682;2023-06-26T13:06:05;2.92;;;2.53;;
74100;SDS011;62462;52.530;21.682;2023-06-26T13:08:31;3.28;;;2.35;;
74100;SDS011;62462;52.530;21.682;2023-06-26T13:10:58;2.05;;;1.85;;
74100;SDS011;62462;52.530;21.682;2023-06-26T13:13:24;7.35;;;2.20;;
74100;SDS011;62462;52.530;21.682;2023-06-26T13:15:49;2.20;;;2.00;;
74100;SDS011;62462;52.530;21.682;2023-06-26T13:18:15;2.92;;;2.30;;
74100;SDS011;62462;52.530;21.682;2023-06-26T13:20:40;3.63;;;1.98;;
74100;SDS011;62462;52.530;21.682;2023-06-26T13:23:06;4.07;;;2.40;;
74100;SDS011;62462;52.530;21.682;2023-06-26T13:25:32;2.40;;;2.20;;
74100;SDS011;62462;52.530;21.682;2023-06-26T13:27:58;2.30;;;1.80;;
74100;SDS011;62462;52.530;21.682;2023-06-26T13:30:24;2.55;;;2.20;;
74100;SDS011;62462;52.530;21.682;2023-06-26T13:32:49;2.47;;;2.03;;
74100;SDS011;62462;52.530;21.682;2023-06-26T13:35:15;3.63;;;2.22;;
74100;SDS011;62462;52.530;21.682;2023-06-26T13:37:41;2.40;;;2.20;;
74100;SDS011;62462;52.530;21.682;2023-06-26T13:40:07;2.72;;;1.95;;
74100;SDS011;62462;52.530;21.682;2023-06-26T13:42:34;2.40;;;2.03;;
74100;SDS011;62462;52.530;21.682;2023-06-26T13:45:01;3.03;;;2.40;;
74100;SDS011;62462;52.530;21.682;2023-06-26T13:47:28;2.25;;;2.05;;
74100;SDS011;62462;52.530;21.682;2023-06-26T13:49:54;3.75;;;2.20;;
74100;SDS011;62462;52.530;21.682;2023-06-26T13:52:20;2.85;;;2.10;;
74100;SDS011;62462;52.530;21.682;2023-06-26T13:54:46;4.55;;;2.10;;
74100;SDS011;62462;52.530;21.682;2023-06-26T13:57:11;6.40;;;2.33;;
74100;SDS011;62462;52.530;21.682;2023-06-26T13:59:38;3.70;;;2.40;;
74100;SDS011;62462;52.530;21.682;2023-06-26T14:02:07;4.47;;;2.50;;
74100;SDS011;62462;52.530;21.682;2023-06-26T14:04:33;3.08;;;2.05;;
74100;SDS011;62462;52.530;21.682;2023-06-26T14:06:59;3.72;;;1.90;;
74100;SDS011;62462;52.530;21.682;2023-06-26T14:09:24;3.03;;;1.92;;
74100;SDS011;62462;52.530;21.682;2023-06-26T14:11:50;2.65;;;1.92;;
74100;SDS011;62462;52.530;21.682;2023-06-26T14:14:16;2.95;;;2.05;;
74100;SDS011;62462;52.530;21.682;2023-06-26T14:16:42;1.88;;;1.77;;
74100;SDS011;62462;52.530;21.682;2023-06-26T14:19:07;2.83;;;2.08;;
74100;SDS011;62462;52.530;21.682;2023-06-26T14:21:39;5.13;;;1.80;;
74100;SDS011;62462;52.530;21.682;2023-06-26T14:24:05;3.15;;;1.85;;
74100;SDS011;62462;52.530;21.682;2023-06-26T14:26:31;3.15;;;2.42;;
74100;SDS011;62462;52.530;21.682;2023-06-26T14:28:58;2.80;;;2.00;;
74100;SDS011;62462;52.530;21.682;2023-06-26T14:31:24;3.13;;;2.15;;
74100;SDS011;62462;52.530;21.682;2023-06-26T14:33:50;4.72;;;2.30;;
74100;SDS011;62462;52.530;21.682;2023-06-26T14:36:16;4.35;;;2.25;;
74100;SDS011;62462;52.530;21.682;2023-06-26T14:38:42;3.75;;;2.05;;
74100;SDS011;62462;52.530;21.682;2023-06-26T14:41:08;2.20;;;2.00;;
74100;SDS011;62462;52.530;21.682;2023-06-26T14:43:33;1.80;;;1.70;;
74100;SDS011;62462;52.530;21.682;2023-06-26T14:45:59;3.53;;;2.00;;
74100;SDS011;62462;52.530;21.682;2023-06-26T14:48:24;2.33;;;1.90;;